sensor_id;sensor_type;location;lat;lon;timestamp;temperature;humidity
72114;SHT31;59989;46.220;19.888;2022-11-12T00:01:33;6.65;96.41
72114;SHT31;59989;46.220;19.888;2022-11-12T00:04:54;6.69;96.43
72114;SHT31;59989;46.220;19.888;2022-11-12T00:08:15;6.86;96.48
72114;SHT31;59989;46.220;19.888;2022-11-12T00:11:36;6.90;96.52
72114;SHT31;59989;46.220;19.888;2022-11-12T00:14:57;6.92;96.49
72114;SHT31;59989;46.220;19.888;2022-11-12T00:18:18;7.04;96.49
72114;SHT31;59989;46.220;19.888;2022-11-12T00:21:40;7.10;96.39
72114;SHT31;59989;46.220;19.888;2022-11-12T00:25:01;7.19;96.36
72114;SHT31;59989;46.220;19.888;2022-11-12T00:28:22;7.23;96.25
72114;SHT31;59989;46.220;19.888;2022-11-12T00:31:43;7.24;96.17
72114;SHT31;59989;46.220;19.888;2022-11-12T00:35:04;7.21;96.19
72114;SHT31;59989;46.220;19.888;2022-11-12T00:38:31;7.21;96.21
72114;SHT31;59989;46.220;19.888;2022-11-12T00:41:51;7.19;96.14
72114;SHT31;59989;46.220;19.888;2022-11-12T00:45:12;7.20;96.06
72114;SHT31;59989;46.220;19.888;2022-11-12T00:48:33;7.31;96.12
72114;SHT31;59989;46.220;19.888;2022-11-12T00:51:54;7.40;96.03
72114;SHT31;59989;46.220;19.888;2022-11-12T00:55:15;7.46;96.02
72114;SHT31;59989;46.220;19.888;2022-11-12T00:58:36;7.46;96.02
72114;SHT31;59989;46.220;19.888;2022-11-12T01:01:57;7.41;95.96
72114;SHT31;59989;46.220;19.888;2022-11-12T01:05:18;7.43;95.93
72114;SHT31;59989;46.220;19.888;2022-11-12T01:08:40;7.41;95.91
72114;SHT31;59989;46.220;19.888;2022-11-12T01:12:01;7.40;95.91
72114;SHT31;59989;46.220;19.888;2022-11-12T01:15:21;7.43;95.95
72114;SHT31;59989;46.220;19.888;2022-11-12T01:18:42;7.44;95.88
72114;SHT31;59989;46.220;19.888;2022-11-12T01:22:04;7.43;95.84
72114;SHT31;59989;46.220;19.888;2022-11-12T01:25:24;7.51;95.84
72114;SHT31;59989;46.220;19.888;2022-11-12T01:28:45;7.50;95.79
72114;SHT31;59989;46.220;19.888;2022-11-12T01:32:06;7.52;95.72
72114;SHT31;59989;46.220;19.888;2022-11-12T01:35:27;7.58;95.59
72114;SHT31;59989;46.220;19.888;2022-11-12T01:38:50;7.55;95.60
72114;SHT31;59989;46.220;19.888;2022-11-12T01:42:12;7.57;95.62
72114;SHT31;59989;46.220;19.888;2022-11-12T01:45:32;7.55;95.57
72114;SHT31;59989;46.220;19.888;2022-11-12T01:49:05;7.57;95.58
72114;SHT31;59989;46.220;19.888;2022-11-12T01:52:28;7.57;95.61
72114;SHT31;59989;46.220;19.888;2022-11-12T01:55:50;7.58;95.60
72114;SHT31;59989;46.220;19.888;2022-11-12T01:59:22;7.61;95.61
72114;SHT31;59989;46.220;19.888;2022-11-12T02:02:52;7.61;95.59
72114;SHT31;59989;46.220;19.888;2022-11-12T02:06:14;7.62;95.56
72114;SHT31;59989;46.220;19.888;2022-11-12T02:09:36;7.62;95.55
72114;SHT31;59989;46.220;19.888;2022-11-12T02:12:57;7.64;95.50
72114;SHT31;59989;46.220;19.888;2022-11-12T02:16:40;7.62;95.42
72114;SHT31;59989;46.220;19.888;2022-11-12T02:20:01;7.55;95.32
72114;SHT31;59989;46.220;19.888;2022-11-12T02:23:22;7.58;95.32
72114;SHT31;59989;46.220;19.888;2022-11-12T02:26:47;7.62;95.21
72114;SHT31;59989;46.220;19.888;2022-11-12T02:30:11;7.54;95.18
72114;SHT31;59989;46.220;19.888;2022-11-12T02:33:32;7.52;95.22
72114;SHT31;59989;46.220;19.888;2022-11-12T02:36:52;7.54;95.40
72114;SHT31;59989;46.220;19.888;2022-11-12T02:40:13;7.51;95.49
72114;SHT31;59989;46.220;19.888;2022-11-12T02:43:34;7.48;95.61
72114;SHT31;59989;46.220;19.888;2022-11-12T02:46:55;7.48;95.68
72114;SHT31;59989;46.220;19.888;2022-11-12T02:50:16;7.51;95.78
72114;SHT31;59989;46.220;19.888;2022-11-12T02:53:38;7.50;95.70
72114;SHT31;59989;46.220;19.888;2022-11-12T02:56:59;7.48;95.64
72114;SHT31;59989;46.220;19.888;2022-11-12T03:00:19;7.51;95.59
72114;SHT31;59989;46.220;19.888;2022-11-12T03:03:40;7.57;95.54
72114;SHT31;59989;46.220;19.888;2022-11-12T03:07:01;7.55;95.41
72114;SHT31;59989;46.220;19.888;2022-11-12T03:10:23;7.52;95.45
72114;SHT31;59989;46.220;19.888;2022-11-12T03:13:44;7.57;95.35
72114;SHT31;59989;46.220;19.888;2022-11-12T03:17:05;7.58;95.41
72114;SHT31;59989;46.220;19.888;2022-11-12T03:20:26;7.57;95.31
72114;SHT31;59989;46.220;19.888;2022-11-12T03:23:47;7.58;95.56
72114;SHT31;59989;46.220;19.888;2022-11-12T03:27:08;7.58;95.51
72114;SHT31;59989;46.220;19.888;2022-11-12T03:30:32;7.62;95.62
72114;SHT31;59989;46.220;19.888;2022-11-12T03:33:53;7.68;95.57
72114;SHT31;59989;46.220;19.888;2022-11-12T03:37:14;7.67;95.56
72114;SHT31;59989;46.220;19.888;2022-11-12T03:40:35;7.65;95.59
72114;SHT31;59989;46.220;19.888;2022-11-12T03:43:57;7.62;95.60
72114;SHT31;59989;46.220;19.888;2022-11-12T03:47:17;7.64;95.53
72114;SHT31;59989;46.220;19.888;2022-11-12T03:50:38;7.61;95.57
72114;SHT31;59989;46.220;19.888;2022-11-12T03:53:59;7.61;95.60
72114;SHT31;59989;46.220;19.888;2022-11-12T03:57:20;7.58;95.56
72114;SHT31;59989;46.220;19.888;2022-11-12T04:00:41;7.54;95.48
72114;SHT31;59989;46.220;19.888;2022-11-12T04:04:02;7.62;95.40
72114;SHT31;59989;46.220;19.888;2022-11-12T04:07:23;7.59;95.37
72114;SHT31;59989;46.220;19.888;2022-11-12T04:11:08;7.61;95.42
72114;SHT31;59989;46.220;19.888;2022-11-12T04:14:29;7.64;95.40
72114;SHT31;59989;46.220;19.888;2022-11-12T04:17:50;7.67;95.36
72114;SHT31;59989;46.220;19.888;2022-11-12T04:21:35;7.64;95.32
72114;SHT31;59989;46.220;19.888;2022-11-12T04:25:15;7.61;95.35
72114;SHT31;59989;46.220;19.888;2022-11-12T04:28:55;7.65;95.35
72114;SHT31;59989;46.220;19.888;2022-11-12T04:32:36;7.68;95.35
72114;SHT31;59989;46.220;19.888;2022-11-12T04:35:57;7.69;95.26
72114;SHT31;59989;46.220;19.888;2022-11-12T04:39:18;7.69;95.27
72114;SHT31;59989;46.220;19.888;2022-11-12T04:42:39;7.71;95.34
72114;SHT31;59989;46.220;19.888;2022-11-12T04:46:19;7.69;95.41
72114;SHT31;59989;46.220;19.888;2022-11-12T04:49:41;7.71;95.33
72114;SHT31;59989;46.220;19.888;2022-11-12T04:53:02;7.72;95.37
72114;SHT31;59989;46.220;19.888;2022-11-12T04:56:22;7.77;95.36
72114;SHT31;59989;46.220;19.888;2022-11-12T04:59:43;7.82;95.35
72114;SHT31;59989;46.220;19.888;2022-11-12T05:03:06;7.83;95.30
72114;SHT31;59989;46.220;19.888;2022-11-12T05:06:26;7.89;95.25
72114;SHT31;59989;46.220;19.888;2022-11-12T05:10:06;7.85;95.28
72114;SHT31;59989;46.220;19.888;2022-11-12T05:13:27;7.86;95.29
72114;SHT31;59989;46.220;19.888;2022-11-12T05:16:49;7.93;95.21
72114;SHT31;59989;46.220;19.888;2022-11-12T05:20:12;7.90;95.14
72114;SHT31;59989;46.220;19.888;2022-11-12T05:23:33;7.89;95.25
72114;SHT31;59989;46.220;19.888;2022-11-12T05:26:54;7.90;95.28
72114;SHT31;59989;46.220;19.888;2022-11-12T05:30:17;7.93;95.28
72114;SHT31;59989;46.220;19.888;2022-11-12T05:33:38;7.92;95.29
72114;SHT31;59989;46.220;19.888;2022-11-12T05:37:00;7.99;95.19
72114;SHT31;59989;46.220;19.888;2022-11-12T05:40:22;7.99;95.14
72114;SHT31;59989;46.220;19.888;2022-11-12T05:43:42;8.02;95.11
72114;SHT31;59989;46.220;19.888;2022-11-12T05:47:03;8.03;95.15
72114;SHT31;59989;46.220;19.888;2022-11-12T05:50:24;8.03;95.14
72114;SHT31;59989;46.220;19.888;2022-11-12T05:53:54;8.00;95.12
72114;SHT31;59989;46.220;19.888;2022-11-12T05:57:15;8.00;95.11
72114;SHT31;59989;46.220;19.888;2022-11-12T06:00:35;8.00;95.08
72114;SHT31;59989;46.220;19.888;2022-11-12T06:03:58;7.98;95.18
72114;SHT31;59989;46.220;19.888;2022-11-12T06:07:19;8.05;95.16
72114;SHT31;59989;46.220;19.888;2022-11-12T06:10:40;8.05;95.07
72114;SHT31;59989;46.220;19.888;2022-11-12T06:14:02;7.99;95.11
72114;SHT31;59989;46.220;19.888;2022-11-12T06:17:23;8.02;95.20
72114;SHT31;59989;46.220;19.888;2022-11-12T06:20:44;8.02;95.19
72114;SHT31;59989;46.220;19.888;2022-11-12T06:24:05;8.09;95.18
72114;SHT31;59989;46.220;19.888;2022-11-12T06:27:26;8.17;95.09
72114;SHT31;59989;46.220;19.888;2022-11-12T06:30:47;8.13;94.98
72114;SHT31;59989;46.220;19.888;2022-11-12T06:34:08;8.03;95.02
72114;SHT31;59989;46.220;19.888;2022-11-12T06:37:28;7.99;95.13
72114;SHT31;59989;46.220;19.888;2022-11-12T06:40:49;8.00;95.07
72114;SHT31;59989;46.220;19.888;2022-11-12T06:44:11;8.06;95.15
72114;SHT31;59989;46.220;19.888;2022-11-12T06:47:31;8.09;95.10
72114;SHT31;59989;46.220;19.888;2022-11-12T06:50:52;8.16;94.99
72114;SHT31;59989;46.220;19.888;2022-11-12T06:54:13;8.22;95.03
72114;SHT31;59989;46.220;19.888;2022-11-12T06:57:34;8.20;95.07
72114;SHT31;59989;46.220;19.888;2022-11-12T07:00:55;8.17;95.07
72114;SHT31;59989;46.220;19.888;2022-11-12T07:04:16;8.17;95.17
72114;SHT31;59989;46.220;19.888;2022-11-12T07:07:37;8.14;95.07
72114;SHT31;59989;46.220;19.888;2022-11-12T07:10:58;8.17;95.04
72114;SHT31;59989;46.220;19.888;2022-11-12T07:14:19;8.25;95.12
72114;SHT31;59989;46.220;19.888;2022-11-12T07:17:44;8.26;95.07
72114;SHT31;59989;46.220;19.888;2022-11-12T07:21:07;8.29;94.87
72114;SHT31;59989;46.220;19.888;2022-11-12T07:24:28;8.32;94.87
72114;SHT31;59989;46.220;19.888;2022-11-12T07:27:48;8.40;94.70
72114;SHT31;59989;46.220;19.888;2022-11-12T07:31:11;8.51;94.57
72114;SHT31;59989;46.220;19.888;2022-11-12T07:34:32;8.63;94.12
72114;SHT31;59989;46.220;19.888;2022-11-12T07:37:53;8.79;94.07
72114;SHT31;59989;46.220;19.888;2022-11-12T07:41:21;8.92;93.72
72114;SHT31;59989;46.220;19.888;2022-11-12T07:44:43;9.04;93.47
72114;SHT31;59989;46.220;19.888;2022-11-12T07:48:04;9.18;93.06
72114;SHT31;59989;46.220;19.888;2022-11-12T07:51:27;9.20;92.72
72114;SHT31;59989;46.220;19.888;2022-11-12T07:54:48;9.25;92.85
72114;SHT31;59989;46.220;19.888;2022-11-12T07:58:09;9.39;92.56
72114;SHT31;59989;46.220;19.888;2022-11-12T08:01:31;9.36;92.34
72114;SHT31;59989;46.220;19.888;2022-11-12T08:04:52;9.36;92.22
72114;SHT31;59989;46.220;19.888;2022-11-12T08:08:13;9.43;92.16
72114;SHT31;59989;46.220;19.888;2022-11-12T08:11:34;9.47;92.14
72114;SHT31;59989;46.220;19.888;2022-11-12T08:14:55;9.55;92.08
72114;SHT31;59989;46.220;19.888;2022-11-12T08:18:16;9.60;91.98
72114;SHT31;59989;46.220;19.888;2022-11-12T08:21:38;9.63;91.81
72114;SHT31;59989;46.220;19.888;2022-11-12T08:24:59;9.77;91.51
72114;SHT31;59989;46.220;19.888;2022-11-12T08:28:20;9.91;91.10
72114;SHT31;59989;46.220;19.888;2022-11-12T08:31:41;9.95;90.98
72114;SHT31;59989;46.220;19.888;2022-11-12T08:35:02;10.09;90.75
72114;SHT31;59989;46.220;19.888;2022-11-12T08:38:23;10.38;90.21
72114;SHT31;59989;46.220;19.888;2022-11-12T08:41:44;10.66;89.36
72114;SHT31;59989;46.220;19.888;2022-11-12T08:45:06;11.28;87.16
72114;SHT31;59989;46.220;19.888;2022-11-12T08:48:28;12.08;85.51
72114;SHT31;59989;46.220;19.888;2022-11-12T08:51:50;12.68;82.01
72114;SHT31;59989;46.220;19.888;2022-11-12T08:55:11;13.36;80.73
72114;SHT31;59989;46.220;19.888;2022-11-12T08:58:32;13.94;77.46
72114;SHT31;59989;46.220;19.888;2022-11-12T09:01:53;13.98;77.93
72114;SHT31;59989;46.220;19.888;2022-11-12T09:05:14;13.48;77.87
72114;SHT31;59989;46.220;19.888;2022-11-12T09:08:36;13.39;78.45
72114;SHT31;59989;46.220;19.888;2022-11-12T09:11:56;13.27;78.79
72114;SHT31;59989;46.220;19.888;2022-11-12T09:15:18;13.37;78.90
72114;SHT31;59989;46.220;19.888;2022-11-12T09:18:59;14.12;77.57
72114;SHT31;59989;46.220;19.888;2022-11-12T09:22:20;14.12;76.75
72114;SHT31;59989;46.220;19.888;2022-11-12T09:25:42;14.76;74.98
72114;SHT31;59989;46.220;19.888;2022-11-12T09:29:03;14.39;75.01
72114;SHT31;59989;46.220;19.888;2022-11-12T09:32:23;14.76;74.98
72114;SHT31;59989;46.220;19.888;2022-11-12T09:35:45;14.47;74.49
72114;SHT31;59989;46.220;19.888;2022-11-12T09:39:06;14.56;74.99
72114;SHT31;59989;46.220;19.888;2022-11-12T09:42:27;14.73;73.93
72114;SHT31;59989;46.220;19.888;2022-11-12T09:45:48;15.05;72.83
72114;SHT31;59989;46.220;19.888;2022-11-12T09:49:32;15.38;72.42
72114;SHT31;59989;46.220;19.888;2022-11-12T09:53:01;15.05;71.59
72114;SHT31;59989;46.220;19.888;2022-11-12T09:56:25;15.12;71.73
72114;SHT31;59989;46.220;19.888;2022-11-12T09:59:48;15.47;70.50
72114;SHT31;59989;46.220;19.888;2022-11-12T10:07:16;16.26;67.47
72114;SHT31;59989;46.220;19.888;2022-11-12T10:10:47;15.89;68.84
72114;SHT31;59989;46.220;19.888;2022-11-12T10:17:48;15.91;68.71
72114;SHT31;59989;46.220;19.888;2022-11-12T10:24:40;15.90;67.20
72114;SHT31;59989;46.220;19.888;2022-11-12T10:28:20;16.32;67.78
72114;SHT31;59989;46.220;19.888;2022-11-12T10:31:43;16.59;66.07
72114;SHT31;59989;46.220;19.888;2022-11-12T10:35:03;16.70;65.20
72114;SHT31;59989;46.220;19.888;2022-11-12T10:38:25;16.66;65.24
72114;SHT31;59989;46.220;19.888;2022-11-12T10:42:01;17.07;63.51
72114;SHT31;59989;46.220;19.888;2022-11-12T10:45:23;16.86;64.26
72114;SHT31;59989;46.220;19.888;2022-11-12T10:48:53;17.06;62.73
72114;SHT31;59989;46.220;19.888;2022-11-12T10:52:23;17.75;61.68
72114;SHT31;59989;46.220;19.888;2022-11-12T10:56:23;18.03;59.02
72114;SHT31;59989;46.220;19.888;2022-11-12T10:59:45;17.86;60.41
72114;SHT31;59989;46.220;19.888;2022-11-12T11:03:18;17.72;60.79
72114;SHT31;59989;46.220;19.888;2022-11-12T11:06:40;18.32;59.12
72114;SHT31;59989;46.220;19.888;2022-11-12T11:10:02;18.32;58.92
72114;SHT31;59989;46.220;19.888;2022-11-12T11:13:26;18.69;58.08
72114;SHT31;59989;46.220;19.888;2022-11-12T11:16:55;18.64;57.86
72114;SHT31;59989;46.220;19.888;2022-11-12T11:20:24;18.27;58.95
72114;SHT31;59989;46.220;19.888;2022-11-12T11:34:53;16.44;64.97
72114;SHT31;59989;46.220;19.888;2022-11-12T11:38:32;16.32;65.41
72114;SHT31;59989;46.220;19.888;2022-11-12T11:55:57;18.81;57.24
72114;SHT31;59989;46.220;19.888;2022-11-12T12:06:40;20.80;51.28
72114;SHT31;59989;46.220;19.888;2022-11-12T12:18:04;21.46;50.04
72114;SHT31;59989;46.220;19.888;2022-11-12T12:21:30;21.81;48.64
72114;SHT31;59989;46.220;19.888;2022-11-12T12:24:56;21.92;47.94
72114;SHT31;59989;46.220;19.888;2022-11-12T12:28:33;22.88;46.38
72114;SHT31;59989;46.220;19.888;2022-11-12T12:35:51;21.48;47.84
72114;SHT31;59989;46.220;19.888;2022-11-12T12:42:54;21.56;47.58
72114;SHT31;59989;46.220;19.888;2022-11-12T12:46:22;23.58;43.75
72114;SHT31;59989;46.220;19.888;2022-11-12T12:49:45;23.23;44.01
72114;SHT31;59989;46.220;19.888;2022-11-12T12:56:48;22.92;43.49
72114;SHT31;59989;46.220;19.888;2022-11-12T13:07:37;23.20;41.73
72114;SHT31;59989;46.220;19.888;2022-11-12T13:10:59;23.53;42.72
72114;SHT31;59989;46.220;19.888;2022-11-12T13:17:56;22.45;43.75
72114;SHT31;59989;46.220;19.888;2022-11-12T13:21:19;21.86;44.80
72114;SHT31;59989;46.220;19.888;2022-11-12T13:28:19;22.61;42.95
72114;SHT31;59989;46.220;19.888;2022-11-12T13:31:40;22.12;44.63
72114;SHT31;59989;46.220;19.888;2022-11-12T13:38:35;23.61;41.46
72114;SHT31;59989;46.220;19.888;2022-11-12T13:41:57;23.20;42.31
72114;SHT31;59989;46.220;19.888;2022-11-12T13:49:12;18.53;51.56
72114;SHT31;59989;46.220;19.888;2022-11-12T13:52:34;17.88;53.87
72114;SHT31;59989;46.220;19.888;2022-11-12T13:55:56;18.29;54.16
72114;SHT31;59989;46.220;19.888;2022-11-12T13:59:23;17.65;54.75
72114;SHT31;59989;46.220;19.888;2022-11-12T14:02:48;16.89;57.64
72114;SHT31;59989;46.220;19.888;2022-11-12T14:06:16;16.96;57.29
72114;SHT31;59989;46.220;19.888;2022-11-12T14:09:58;16.44;60.29
72114;SHT31;59989;46.220;19.888;2022-11-12T14:13:53;16.08;62.67
72114;SHT31;59989;46.220;19.888;2022-11-12T14:17:43;15.89;63.24
72114;SHT31;59989;46.220;19.888;2022-11-12T14:21:14;15.73;63.31
72114;SHT31;59989;46.220;19.888;2022-11-12T14:24:35;15.83;62.51
72114;SHT31;59989;46.220;19.888;2022-11-12T14:27:56;15.82;60.83
72114;SHT31;59989;46.220;19.888;2022-11-12T14:31:23;15.83;60.91
72114;SHT31;59989;46.220;19.888;2022-11-12T14:34:44;15.71;61.30
72114;SHT31;59989;46.220;19.888;2022-11-12T14:41:37;15.25;63.30
72114;SHT31;59989;46.220;19.888;2022-11-12T14:45:02;14.87;65.07
72114;SHT31;59989;46.220;19.888;2022-11-12T14:48:23;14.47;65.83
72114;SHT31;59989;46.220;19.888;2022-11-12T14:51:48;14.28;66.14
72114;SHT31;59989;46.220;19.888;2022-11-12T14:55:11;14.04;67.20
72114;SHT31;59989;46.220;19.888;2022-11-12T14:58:34;13.71;68.37
72114;SHT31;59989;46.220;19.888;2022-11-12T15:02:08;13.55;69.18
72114;SHT31;59989;46.220;19.888;2022-11-12T15:09:36;13.12;71.00
72114;SHT31;59989;46.220;19.888;2022-11-12T15:13:18;12.88;71.98
72114;SHT31;59989;46.220;19.888;2022-11-12T15:16:41;12.65;72.82
72114;SHT31;59989;46.220;19.888;2022-11-12T15:20:04;12.49;73.84
72114;SHT31;59989;46.220;19.888;2022-11-12T15:23:25;12.21;74.66
72114;SHT31;59989;46.220;19.888;2022-11-12T15:26:47;12.00;75.45
72114;SHT31;59989;46.220;19.888;2022-11-12T15:30:25;11.85;76.01
72114;SHT31;59989;46.220;19.888;2022-11-12T15:33:47;11.65;77.21
72114;SHT31;59989;46.220;19.888;2022-11-12T15:37:18;11.39;78.04
72114;SHT31;59989;46.220;19.888;2022-11-12T15:40:43;11.21;78.95
72114;SHT31;59989;46.220;19.888;2022-11-12T15:44:07;11.00;79.72
72114;SHT31;59989;46.220;19.888;2022-11-12T15:47:29;10.84;80.60
72114;SHT31;59989;46.220;19.888;2022-11-12T15:50:50;10.63;81.19
72114;SHT31;59989;46.220;19.888;2022-11-12T15:54:11;10.50;81.90
72114;SHT31;59989;46.220;19.888;2022-11-12T15:57:38;10.32;82.75
72114;SHT31;59989;46.220;19.888;2022-11-12T16:01:00;10.18;83.36
72114;SHT31;59989;46.220;19.888;2022-11-12T16:04:22;10.13;83.78
72114;SHT31;59989;46.220;19.888;2022-11-12T16:07:43;10.01;84.20
72114;SHT31;59989;46.220;19.888;2022-11-12T16:11:04;9.91;84.36
72114;SHT31;59989;46.220;19.888;2022-11-12T16:14:45;9.78;85.07
72114;SHT31;59989;46.220;19.888;2022-11-12T16:18:10;9.71;85.35
72114;SHT31;59989;46.220;19.888;2022-11-12T16:21:33;9.58;85.84
72114;SHT31;59989;46.220;19.888;2022-11-12T16:24:55;9.47;86.39
72114;SHT31;59989;46.220;19.888;2022-11-12T16:28:16;9.39;86.76
72114;SHT31;59989;46.220;19.888;2022-11-12T16:31:40;9.33;86.95
72114;SHT31;59989;46.220;19.888;2022-11-12T16:35:02;9.18;87.41
72114;SHT31;59989;46.220;19.888;2022-11-12T16:38:24;9.13;87.96
72114;SHT31;59989;46.220;19.888;2022-11-12T16:41:45;9.01;88.18
72114;SHT31;59989;46.220;19.888;2022-11-12T16:45:07;8.85;88.84
72114;SHT31;59989;46.220;19.888;2022-11-12T16:48:28;8.75;89.04
72114;SHT31;59989;46.220;19.888;2022-11-12T16:51:49;8.69;89.45
72114;SHT31;59989;46.220;19.888;2022-11-12T16:55:10;8.58;89.65
72114;SHT31;59989;46.220;19.888;2022-11-12T16:58:31;8.48;89.82
72114;SHT31;59989;46.220;19.888;2022-11-12T17:01:54;8.32;90.05
72114;SHT31;59989;46.220;19.888;2022-11-12T17:05:18;8.26;90.37
72114;SHT31;59989;46.220;19.888;2022-11-12T17:08:42;8.17;90.45
72114;SHT31;59989;46.220;19.888;2022-11-12T17:12:05;8.07;90.60
72114;SHT31;59989;46.220;19.888;2022-11-12T17:15:26;8.02;90.93
72114;SHT31;59989;46.220;19.888;2022-11-12T17:18:51;7.99;91.39
72114;SHT31;59989;46.220;19.888;2022-11-12T17:22:13;7.90;91.56
72114;SHT31;59989;46.220;19.888;2022-11-12T17:25:34;7.81;91.58
72114;SHT31;59989;46.220;19.888;2022-11-12T17:28:57;7.69;91.88
72114;SHT31;59989;46.220;19.888;2022-11-12T17:32:26;7.57;92.33
72114;SHT31;59989;46.220;19.888;2022-11-12T17:35:47;7.54;92.39
72114;SHT31;59989;46.220;19.888;2022-11-12T17:39:10;7.47;92.55
72114;SHT31;59989;46.220;19.888;2022-11-12T17:42:32;7.37;92.78
72114;SHT31;59989;46.220;19.888;2022-11-12T17:45:54;7.34;92.93
72114;SHT31;59989;46.220;19.888;2022-11-12T17:49:15;7.28;93.16
72114;SHT31;59989;46.220;19.888;2022-11-12T17:52:37;7.28;93.29
72114;SHT31;59989;46.220;19.888;2022-11-12T17:55:58;7.24;93.42
72114;SHT31;59989;46.220;19.888;2022-11-12T17:59:20;7.26;93.35
72114;SHT31;59989;46.220;19.888;2022-11-12T18:02:41;7.17;93.36
72114;SHT31;59989;46.220;19.888;2022-11-12T18:06:02;7.11;93.32
72114;SHT31;59989;46.220;19.888;2022-11-12T18:09:23;7.00;93.20
72114;SHT31;59989;46.220;19.888;2022-11-12T18:12:44;6.83;93.47
72114;SHT31;59989;46.220;19.888;2022-11-12T18:19:37;6.71;93.71
72114;SHT31;59989;46.220;19.888;2022-11-12T18:22:59;6.68;93.91
72114;SHT31;59989;46.220;19.888;2022-11-12T18:26:20;6.67;94.07
72114;SHT31;59989;46.220;19.888;2022-11-12T18:29:41;6.59;94.08
72114;SHT31;59989;46.220;19.888;2022-11-12T18:33:02;6.62;94.40
72114;SHT31;59989;46.220;19.888;2022-11-12T18:36:24;6.56;94.47
72114;SHT31;59989;46.220;19.888;2022-11-12T18:39:46;6.52;94.42
72114;SHT31;59989;46.220;19.888;2022-11-12T18:43:07;6.48;94.44
72114;SHT31;59989;46.220;19.888;2022-11-12T18:46:28;6.42;94.46
72114;SHT31;59989;46.220;19.888;2022-11-12T18:49:49;6.41;94.63
72114;SHT31;59989;46.220;19.888;2022-11-12T18:53:11;6.34;94.53
72114;SHT31;59989;46.220;19.888;2022-11-12T18:56:32;6.25;94.41
72114;SHT31;59989;46.220;19.888;2022-11-12T18:59:53;6.22;94.48
72114;SHT31;59989;46.220;19.888;2022-11-12T19:03:14;6.18;94.67
72114;SHT31;59989;46.220;19.888;2022-11-12T19:06:36;6.18;94.65
72114;SHT31;59989;46.220;19.888;2022-11-12T19:09:57;6.09;94.58
72114;SHT31;59989;46.220;19.888;2022-11-12T19:13:18;6.01;94.77
72114;SHT31;59989;46.220;19.888;2022-11-12T19:16:39;6.00;94.78
72114;SHT31;59989;46.220;19.888;2022-11-12T19:20:05;5.96;94.74
72114;SHT31;59989;46.220;19.888;2022-11-12T19:23:26;5.93;94.78
72114;SHT31;59989;46.220;19.888;2022-11-12T19:26:48;5.90;94.83
72114;SHT31;59989;46.220;19.888;2022-11-12T19:30:09;5.97;94.89
72114;SHT31;59989;46.220;19.888;2022-11-12T19:33:32;5.99;94.85
72114;SHT31;59989;46.220;19.888;2022-11-12T19:37:02;5.94;94.85
72114;SHT31;59989;46.220;19.888;2022-11-12T19:40:44;5.89;94.89
72114;SHT31;59989;46.220;19.888;2022-11-12T19:44:06;5.83;94.86
72114;SHT31;59989;46.220;19.888;2022-11-12T19:47:28;5.76;94.92
72114;SHT31;59989;46.220;19.888;2022-11-12T19:50:49;5.66;94.87
72114;SHT31;59989;46.220;19.888;2022-11-12T19:54:11;5.52;94.76
72114;SHT31;59989;46.220;19.888;2022-11-12T19:57:31;5.44;94.84
72114;SHT31;59989;46.220;19.888;2022-11-12T20:00:53;5.35;94.90
72114;SHT31;59989;46.220;19.888;2022-11-12T20:04:14;5.24;94.90
72114;SHT31;59989;46.220;19.888;2022-11-12T20:07:41;5.13;94.82
72114;SHT31;59989;46.220;19.888;2022-11-12T20:11:02;5.04;94.91
72114;SHT31;59989;46.220;19.888;2022-11-12T20:14:23;4.98;95.12
72114;SHT31;59989;46.220;19.888;2022-11-12T20:17:44;4.91;95.19
72114;SHT31;59989;46.220;19.888;2022-11-12T20:21:05;4.81;95.22
72114;SHT31;59989;46.220;19.888;2022-11-12T20:24:27;4.74;95.30
72114;SHT31;59989;46.220;19.888;2022-11-12T20:27:48;4.74;95.29
72114;SHT31;59989;46.220;19.888;2022-11-12T20:31:14;4.69;95.44
72114;SHT31;59989;46.220;19.888;2022-11-12T20:34:36;4.66;95.58
72114;SHT31;59989;46.220;19.888;2022-11-12T20:37:57;4.62;95.50
72114;SHT31;59989;46.220;19.888;2022-11-12T20:41:21;4.57;95.50
72114;SHT31;59989;46.220;19.888;2022-11-12T20:44:42;4.62;95.75
72114;SHT31;59989;46.220;19.888;2022-11-12T20:48:03;4.59;95.82
72114;SHT31;59989;46.220;19.888;2022-11-12T20:51:26;4.52;95.83
72114;SHT31;59989;46.220;19.888;2022-11-12T20:54:49;4.55;95.90
72114;SHT31;59989;46.220;19.888;2022-11-12T20:58:10;4.52;95.96
72114;SHT31;59989;46.220;19.888;2022-11-12T21:01:31;4.48;95.86
72114;SHT31;59989;46.220;19.888;2022-11-12T21:04:53;4.38;95.89
72114;SHT31;59989;46.220;19.888;2022-11-12T21:08:14;4.38;95.91
72114;SHT31;59989;46.220;19.888;2022-11-12T21:11:35;4.39;96.02
72114;SHT31;59989;46.220;19.888;2022-11-12T21:14:57;4.44;96.11
72114;SHT31;59989;46.220;19.888;2022-11-12T21:18:18;4.45;96.06
72114;SHT31;59989;46.220;19.888;2022-11-12T21:21:39;4.44;96.11
72114;SHT31;59989;46.220;19.888;2022-11-12T21:25:00;4.41;96.07
72114;SHT31;59989;46.220;19.888;2022-11-12T21:28:21;4.34;96.02
72114;SHT31;59989;46.220;19.888;2022-11-12T21:31:42;4.18;95.87
72114;SHT31;59989;46.220;19.888;2022-11-12T21:35:03;4.15;95.92
72114;SHT31;59989;46.220;19.888;2022-11-12T21:38:26;4.15;95.98
72114;SHT31;59989;46.220;19.888;2022-11-12T21:41:47;4.09;96.04
72114;SHT31;59989;46.220;19.888;2022-11-12T21:45:09;4.04;95.94
72114;SHT31;59989;46.220;19.888;2022-11-12T21:48:29;4.04;96.00
72114;SHT31;59989;46.220;19.888;2022-11-12T21:51:50;3.97;95.98
72114;SHT31;59989;46.220;19.888;2022-11-12T21:55:11;3.99;96.08
72114;SHT31;59989;46.220;19.888;2022-11-12T21:58:32;3.94;96.13
72114;SHT31;59989;46.220;19.888;2022-11-12T22:01:53;3.88;96.01
72114;SHT31;59989;46.220;19.888;2022-11-12T22:05:13;3.83;96.01
72114;SHT31;59989;46.220;19.888;2022-11-12T22:08:35;3.78;96.00
72114;SHT31;59989;46.220;19.888;2022-11-12T22:11:56;3.74;95.95
72114;SHT31;59989;46.220;19.888;2022-11-12T22:15:16;3.66;95.91
72114;SHT31;59989;46.220;19.888;2022-11-12T22:18:45;3.56;95.99
72114;SHT31;59989;46.220;19.888;2022-11-12T22:22:06;3.49;95.98
72114;SHT31;59989;46.220;19.888;2022-11-12T22:25:27;3.52;96.09
72114;SHT31;59989;46.220;19.888;2022-11-12T22:28:48;3.77;96.30
72114;SHT31;59989;46.220;19.888;2022-11-12T22:32:09;3.84;96.49
72114;SHT31;59989;46.220;19.888;2022-11-12T22:35:29;3.76;96.39
72114;SHT31;59989;46.220;19.888;2022-11-12T22:38:51;3.71;96.30
72114;SHT31;59989;46.220;19.888;2022-11-12T22:42:13;3.52;96.26
72114;SHT31;59989;46.220;19.888;2022-11-12T22:45:34;3.44;96.18
72114;SHT31;59989;46.220;19.888;2022-11-12T22:49:02;3.44;96.17
72114;SHT31;59989;46.220;19.888;2022-11-12T22:52:23;3.44;96.22
72114;SHT31;59989;46.220;19.888;2022-11-12T22:55:44;3.42;96.23